Time;durP1;ratioP1;P1;durP2;ratioP2;P2;SDS_P1;SDS_P2;PMS_P1;PMS_P2;Temp;Humidity;BMP_temperature;BMP_pressure;BME280_temperature;BME280_humidity;BME280_pressure;Samples;Min_cycle;Max_cycle;Signal;HPM_P1;HPM_P2
2022/04/05 00:01:50;;;;;;;;;12.00;12.00;;;;;9.63;40.69;97481.13;6145377;28;96561;-68
2022/04/05 00:04:54;;;;;;;;;12.20;11.80;;;;;9.76;40.63;97482.66;6161879;28;98432;-67
2022/04/05 00:07:57;;;;;;;;;13.00;12.00;;;;;9.65;41.48;97491.66;6162687;28;97885;-68
2022/04/05 00:11:01;;;;;;;;;12.00;11.00;;;;;9.53;42.16;97487.19;6155956;28;97780;-67
2022/04/05 00:14:04;;;;;;;;;11.00;11.00;;;;;9.46;43.11;97489.28;6154117;28;96799;-68
2022/04/05 00:17:09;;;;;;;;;12.00;11.00;;;;;9.58;42.83;97481.06;6162117;28;96378;-68
2022/04/05 00:20:13;;;;;;;;;13.00;11.20;;;;;9.54;43.13;97467.31;6159476;28;97026;-68
2022/04/05 00:23:17;;;;;;;;;9.60;9.60;;;;;9.46;43.79;97464.25;6160414;28;96454;-67
2022/04/05 00:26:20;;;;;;;;;13.75;12.00;;;;;9.22;44.33;97469.03;6159946;28;97056;-69
2022/04/05 00:29:23;;;;;;;;;12.00;11.20;;;;;9.22;44.27;97444.84;6157165;28;97638;-67
2022/04/05 00:32:28;;;;;;;;;12.40;11.60;;;;;9.24;44.03;97440.00;6160730;28;96781;-69
2022/04/05 00:35:31;;;;;;;;;12.80;10.00;;;;;9.44;43.55;97444.84;6158849;28;96690;-67
2022/04/05 00:38:35;;;;;;;;;10.00;10.00;;;;;9.55;42.97;97446.59;6159339;28;97448;-68
2022/04/05 00:41:39;;;;;;;;;14.00;13.00;;;;;9.50;43.58;97436.59;6161055;28;97530;-67
2022/04/05 00:44:42;;;;;;;;;12.00;11.50;;;;;9.56;43.52;97441.00;6136764;28;97355;-67
2022/04/05 00:47:50;;;;;;;;;12.75;11.00;;;;;9.52;43.93;97434.50;6150699;28;96251;-67
2022/04/05 00:50:53;;;;;;;;;14.00;11.00;;;;;9.52;44.21;97422.91;6152266;28;97112;-68
2022/04/05 00:54:03;;;;;;;;;14.00;13.00;;;;;9.51;44.16;97434.72;6151360;27;97808;-67
2022/04/05 00:57:11;;;;;;;;;12.60;12.00;;;;;9.52;44.27;97422.91;6160226;27;96366;-67
2022/04/05 01:00:15;;;;;;;;;10.80;10.00;;;;;9.59;44.42;97423.53;6165304;27;98447;-67
2022/04/05 01:03:20;;;;;;;;;15.40;13.00;;;;;9.58;44.43;97416.50;6144145;28;98465;-67
2022/04/05 01:06:26;;;;;;;;;12.40;12.00;;;;;9.54;44.27;97420.75;6152347;28;96881;-67
2022/04/05 01:09:30;;;;;;;;;12.00;11.20;;;;;9.44;44.78;97417.94;6143305;28;97177;-67
2022/04/05 01:12:34;;;;;;;;;13.40;13.00;;;;;9.11;45.46;97408.94;6161386;28;96384;-67
2022/04/05 01:15:38;;;;;;;;;13.00;12.00;;;;;9.36;45.01;97408.44;6162368;28;96236;-67
2022/04/05 01:18:43;;;;;;;;;13.60;12.40;;;;;9.41;45.01;97405.81;6161611;28;96455;-67
2022/04/05 01:21:46;;;;;;;;;12.00;11.00;;;;;9.42;44.81;97406.63;6160372;28;97216;-67
2022/04/05 01:24:52;;;;;;;;;13.00;11.00;;;;;9.31;44.97;97397.63;6152250;28;96428;-67
2022/04/05 01:27:55;;;;;;;;;11.20;10.00;;;;;9.48;44.65;97397.56;6157851;28;96821;-67
2022/04/05 01:30:58;;;;;;;;;11.00;10.60;;;;;9.41;44.96;97386.19;6161117;27;96411;-71
2022/04/05 01:34:01;;;;;;;;;13.00;12.00;;;;;9.17;45.70;97392.88;6161579;28;97009;-67
2022/04/05 01:37:09;;;;;;;;;11.60;11.00;;;;;9.37;45.31;97380.50;6158350;28;96307;-67
2022/04/05 01:40:14;;;;;;;;;11.00;10.00;;;;;9.17;46.27;97380.25;6161962;28;96743;-67
2022/04/05 01:43:17;;;;;;;;;12.00;11.33;;;;;9.30;46.28;97384.44;6161401;28;96580;-67
2022/04/05 01:46:21;;;;;;;;;10.80;10.20;;;;;9.19;47.04;97380.00;6149590;28;96680;-67
2022/04/05 01:49:24;;;;;;;;;12.00;10.20;;;;;9.17;47.49;97395.56;6158816;28;97871;-67
2022/04/05 01:52:28;;;;;;;;;9.75;9.75;;;;;9.17;48.06;97398.25;6141152;28;96574;-67
2022/04/05 01:55:32;;;;;;;;;10.40;10.00;;;;;9.21;48.36;97396.69;6160129;28;96821;-67
2022/04/05 01:58:36;;;;;;;;;10.00;9.00;;;;;9.07;49.43;97386.31;6157761;28;98222;-68
2022/04/05 02:01:40;;;;;;;;;10.50;9.00;;;;;9.07;49.16;97394.38;6175834;27;97189;-67
2022/04/05 02:04:44;;;;;;;;;10.00;9.00;;;;;9.05;49.68;97390.28;6160214;28;97176;-68
2022/04/05 02:07:47;;;;;;;;;10.60;9.00;;;;;8.92;50.33;97383.41;6155774;28;99313;-68
2022/04/05 02:10:52;;;;;;;;;10.00;10.00;;;;;8.78;50.85;97384.81;6157741;28;96615;-69
2022/04/05 02:13:57;;;;;;;;;8.20;7.60;;;;;8.83;51.08;97373.31;6150102;28;96873;-67
2022/04/05 02:17:01;;;;;;;;;10.00;9.00;;;;;8.75;51.55;97384.50;6120986;28;97666;-68
2022/04/05 02:20:08;;;;;;;;;8.00;7.50;;;;;8.74;51.84;97374.81;6158100;28;97736;-67
2022/04/05 02:23:13;;;;;;;;;8.20;7.80;;;;;8.62;52.24;97369.50;6162446;27;98602;-67
2022/04/05 02:26:29;;;;;;;;;9.25;8.25;;;;;8.54;52.31;97364.56;6144930;27;97581;-67
2022/04/05 02:29:32;;;;;;;;;9.00;7.00;;;;;8.52;52.74;97366.66;6158818;28;96593;-67
2022/04/05 02:32:41;;;;;;;;;11.00;8.00;;;;;8.65;52.61;97366.31;6158389;28;97335;-67
2022/04/05 02:35:48;;;;;;;;;8.00;7.00;;;;;8.64;52.46;97370.91;6144234;28;96918;-67
2022/04/05 02:38:52;;;;;;;;;7.00;6.80;;;;;8.75;52.24;97360.31;6176736;27;96497;-67
2022/04/05 02:41:58;;;;;;;;;9.75;8.00;;;;;8.56;52.83;97360.56;6159969;28;96801;-67
2022/04/05 02:45:02;;;;;;;;;9.00;8.20;;;;;8.59;52.72;97357.41;6160137;28;96761;-67
2022/04/05 02:48:05;;;;;;;;;7.00;7.00;;;;;8.51;53.37;97359.66;6160497;28;96536;-68
2022/04/05 02:51:10;;;;;;;;;9.00;7.00;;;;;8.56;53.26;97349.00;6159163;28;96744;-69
2022/04/05 02:54:14;;;;;;;;;7.00;7.00;;;;;8.59;53.09;97357.41;6159565;28;96403;-67
2022/04/05 02:57:21;;;;;;;;;8.00;7.00;;;;;8.40;53.71;97357.91;6176252;28;96237;-67
2022/04/05 03:00:29;;;;;;;;;8.00;7.00;;;;;8.42;53.60;97350.41;6159663;28;96935;-67
2022/04/05 03:03:35;;;;;;;;;9.00;6.00;;;;;8.49;53.42;97348.38;6154013;28;96510;-67
2022/04/05 03:06:39;;;;;;;;;9.00;9.00;;;;;8.49;53.76;97345.69;6159533;28;97310;-67
2022/04/05 03:09:44;;;;;;;;;7.00;7.00;;;;;8.61;53.33;97357.13;6151083;28;96367;-67
2022/04/05 03:12:51;;;;;;;;;7.40;7.00;;;;;8.55;53.55;97352.78;6175453;28;96203;-67
2022/04/05 03:15:56;;;;;;;;;7.00;6.00;;;;;8.41;54.01;97346.91;6159389;28;97323;-67
2022/04/05 03:19:00;;;;;;;;;8.00;7.00;;;;;8.48;54.06;97344.06;6142025;28;97339;-67
2022/04/05 03:22:06;;;;;;;;;8.00;8.00;;;;;8.50;54.00;97341.94;6156563;28;97039;-68
2022/04/05 03:25:10;;;;;;;;;7.20;7.00;;;;;8.58;53.59;97342.34;6157731;28;96512;-67
2022/04/05 03:28:14;;;;;;;;;7.00;6.60;;;;;8.66;53.22;97333.84;6157629;28;97473;-67
2022/04/05 03:31:18;;;;;;;;;6.40;6.40;;;;;8.70;53.28;97339.53;6156754;28;96848;-67
2022/04/05 03:34:25;;;;;;;;;5.60;5.60;;;;;8.75;53.07;97341.50;6157585;28;96433;-67
2022/04/05 03:37:30;;;;;;;;;9.00;7.00;;;;;8.50;53.98;97340.06;6140386;28;97046;-67
2022/04/05 03:40:33;;;;;;;;;8.20;7.60;;;;;8.68;53.20;97334.44;6148696;28;96667;-67
2022/04/05 03:43:40;;;;;;;;;7.00;6.00;;;;;8.65;53.35;97340.28;6150167;28;97612;-67
2022/04/05 03:46:44;;;;;;;;;6.60;5.60;;;;;8.61;53.67;97341.03;6150552;28;96801;-68
2022/04/05 03:49:48;;;;;;;;;5.00;4.50;;;;;8.74;53.13;97339.88;6146493;28;97388;-68
2022/04/05 03:52:52;;;;;;;;;5.75;5.75;;;;;8.78;52.96;97333.75;6148196;28;96783;-67
2022/04/05 03:56:03;;;;;;;;;6.00;5.00;;;;;8.80;52.91;97328.94;6154612;28;96524;-68
2022/04/05 03:59:08;;;;;;;;;6.00;5.00;;;;;8.87;52.71;97328.75;6139508;27;97025;-67
2022/04/05 04:02:12;;;;;;;;;5.00;5.00;;;;;8.83;52.69;97333.00;6139958;28;96533;-67
2022/04/05 04:05:20;;;;;;;;;5.00;4.00;;;;;8.79;52.85;97324.66;6144298;28;97678;-68
2022/04/05 04:08:27;;;;;;;;;3.40;3.40;;;;;8.90;52.57;97325.56;6157482;28;96544;-67
2022/04/05 04:11:30;;;;;;;;;4.00;3.00;;;;;8.74;52.85;97316.50;6156749;28;98425;-67
2022/04/05 04:14:36;;;;;;;;;3.00;3.00;;;;;8.82;52.95;97323.31;6159756;28;96414;-67
2022/04/05 04:17:49;;;;;;;;;3.25;3.25;;;;;8.83;52.97;97324.94;6159445;28;97371;-67
2022/04/05 04:20:53;;;;;;;;;4.00;3.00;;;;;8.89;52.73;97330.16;6132141;28;97359;-67
2022/04/05 04:23:58;;;;;;;;;3.40;3.40;;;;;8.96;52.72;97328.09;6142757;28;97567;-67
2022/04/05 04:27:02;;;;;;;;;3.00;3.00;;;;;8.79;53.11;97331.88;6151540;28;96856;-67
2022/04/05 04:30:08;;;;;;;;;2.00;2.00;;;;;8.59;53.49;97329.72;6158594;28;96543;-69
2022/04/05 04:33:11;;;;;;;;;4.00;3.00;;;;;8.80;53.15;97333.50;6154399;28;96728;-67
2022/04/05 04:36:14;;;;;;;;;2.00;2.00;;;;;8.78;53.44;97332.94;6160263;28;97300;-68
2022/04/05 04:39:18;;;;;;;;;2.00;2.00;;;;;8.70;53.81;97337.66;6159135;28;96520;-68
2022/04/05 04:42:21;;;;;;;;;3.00;2.00;;;;;8.79;53.72;97339.94;6159322;28;96598;-67
2022/04/05 04:45:28;;;;;;;;;3.00;3.00;;;;;8.95;53.13;97339.88;6158792;28;97787;-67
2022/04/05 04:48:32;;;;;;;;;3.00;3.00;;;;;8.62;54.13;97348.84;6140819;28;96542;-67
2022/04/05 04:51:35;;;;;;;;;3.00;2.00;;;;;8.86;53.40;97335.19;6156071;28;97339;-67
2022/04/05 04:54:38;;;;;;;;;3.20;3.20;;;;;8.86;53.38;97344.06;6159660;28;96700;-68
2022/04/05 04:57:42;;;;;;;;;3.00;2.20;;;;;8.91;53.81;97340.63;6161395;28;96886;-67
2022/04/05 05:00:46;;;;;;;;;3.00;3.00;;;;;8.91;53.75;97352.19;6161945;28;96361;-67
2022/04/05 05:03:51;;;;;;;;;2.00;2.00;;;;;8.78;54.25;97357.13;6125722;28;96708;-67
2022/04/05 05:06:54;;;;;;;;;3.00;3.00;;;;;8.92;53.94;97351.16;6138676;28;97378;-67
2022/04/05 05:09:58;;;;;;;;;3.40;2.00;;;;;8.83;54.18;97352.63;6156513;28;97260;-66
2022/04/05 05:13:01;;;;;;;;;3.67;3.00;;;;;8.88;54.04;97359.97;6143185;28;97387;-66
2022/04/05 05:16:06;;;;;;;;;2.00;2.00;;;;;8.97;53.86;97355.78;6162715;28;96265;-67
2022/04/05 05:19:09;;;;;;;;;3.00;2.00;;;;;9.03;53.59;97357.47;6143776;28;96494;-68
2022/04/05 05:22:15;;;;;;;;;3.00;3.00;;;;;9.11;53.61;97365.09;6160311;28;96319;-66
2022/04/05 05:25:18;;;;;;;;;2.00;2.00;;;;;9.08;53.37;97379.88;6160404;28;97375;-67
2022/04/05 05:28:21;;;;;;;;;2.00;2.00;;;;;8.94;54.10;97373.19;6161125;28;96245;-68
2022/04/05 05:31:26;;;;;;;;;3.40;3.00;;;;;8.79;54.42;97364.94;6161707;28;97530;-68
2022/04/05 05:34:30;;;;;;;;;3.00;2.00;;;;;8.90;54.28;97369.38;6162278;28;96196;-68
2022/04/05 05:37:33;;;;;;;;;3.00;3.00;;;;;8.86;54.50;97379.00;6161245;28;96405;-68
2022/04/05 05:40:36;;;;;;;;;3.00;3.00;;;;;8.88;54.47;97368.00;6160522;28;96909;-68
2022/04/05 05:43:41;;;;;;;;;3.00;2.00;;;;;8.92;54.54;97380.72;6153448;28;97358;-68
2022/04/05 05:46:45;;;;;;;;;2.75;2.75;;;;;8.76;54.91;97384.22;6149517;28;97320;-68
2022/04/05 05:49:49;;;;;;;;;3.00;3.00;;;;;8.98;54.42;97379.72;6153202;28;96475;-68
2022/04/05 05:52:53;;;;;;;;;2.20;2.00;;;;;8.79;54.74;97381.06;6152562;28;98647;-68
2022/04/05 05:55:56;;;;;;;;;3.00;2.00;;;;;8.99;54.46;97394.78;6160973;28;96447;-68
2022/04/05 05:58:59;;;;;;;;;3.00;2.60;;;;;9.17;54.32;97388.31;6161617;28;96296;-68
2022/04/05 06:02:04;;;;;;;;;3.00;3.00;;;;;8.99;54.52;97413.59;6161787;28;97360;-67
2022/04/05 06:05:09;;;;;;;;;3.00;3.00;;;;;8.86;54.63;97394.31;6160248;28;97532;-67
2022/04/05 06:08:18;;;;;;;;;3.00;2.00;;;;;8.68;55.11;97401.59;6150802;28;96492;-68
2022/04/05 06:11:21;;;;;;;;;3.40;3.00;;;;;8.79;55.04;97399.88;6158599;28;97309;-67
2022/04/05 06:14:24;;;;;;;;;3.00;2.00;;;;;8.94;54.90;97399.28;6172541;27;96933;-68
2022/04/05 06:17:29;;;;;;;;;2.00;2.00;;;;;8.91;54.88;97399.75;6143395;28;98240;-68
2022/04/05 06:20:32;;;;;;;;;3.50;3.00;;;;;8.92;54.91;97399.53;6169982;28;96538;-67
2022/04/05 06:23:35;;;;;;;;;3.00;2.00;;;;;8.67;55.27;97389.22;6155753;28;96557;-67
2022/04/05 06:26:39;;;;;;;;;2.40;2.00;;;;;9.09;54.68;97399.47;6154123;28;96491;-67
2022/04/05 06:29:42;;;;;;;;;4.00;4.00;;;;;9.07;54.56;97391.66;6143491;27;97793;-67
2022/04/05 06:32:47;;;;;;;;;4.00;4.00;;;;;9.18;54.69;97408.75;6153314;28;97097;-67
2022/04/05 06:35:53;;;;;;;;;3.00;2.00;;;;;9.11;54.50;97410.78;6149540;28;97426;-68
2022/04/05 06:38:56;;;;;;;;;3.00;2.00;;;;;9.29;54.09;97407.00;6182955;27;96405;-68
2022/04/05 06:41:59;;;;;;;;;2.80;2.20;;;;;9.41;54.25;97407.69;6160371;27;98348;-68
2022/04/05 06:45:03;;;;;;;;;3.00;2.00;;;;;9.43;53.98;97411.75;6153666;28;96725;-68
2022/04/05 06:48:09;;;;;;;;;2.00;2.00;;;;;9.42;54.16;97410.16;6160769;28;96343;-69
2022/04/05 06:51:12;;;;;;;;;3.20;2.20;;;;;9.41;54.19;97413.09;6144470;28;96232;-68
2022/04/05 06:54:17;;;;;;;;;2.00;2.00;;;;;9.46;54.05;97418.53;6146230;28;97622;-69
2022/04/05 06:57:21;;;;;;;;;3.00;2.00;;;;;9.55;53.91;97422.41;6153419;28;97097;-66
2022/04/05 07:00:26;;;;;;;;;1.00;1.00;;;;;9.45;53.96;97423.09;6166505;28;96686;-67
2022/04/05 07:03:31;;;;;;;;;2.00;2.00;;;;;9.35;54.21;97422.94;6157447;27;96599;-68
2022/04/05 07:06:39;;;;;;;;;2.00;2.00;;;;;9.36;54.14;97424.59;6157367;28;96431;-69
2022/04/05 07:09:42;;;;;;;;;1.00;0.00;;;;;9.45;54.02;97419.56;6148260;28;96715;-69
2022/04/05 07:12:46;;;;;;;;;1.00;1.00;;;;;9.23;54.46;97421.44;6154181;28;97277;-69
2022/04/05 07:15:49;;;;;;;;;1.00;1.00;;;;;9.37;54.07;97418.16;6142835;28;97317;-70
2022/04/05 07:18:55;;;;;;;;;1.00;1.00;;;;;9.47;54.16;97426.34;6160785;28;97074;-70
2022/04/05 07:21:58;;;;;;;;;1.00;1.00;;;;;9.52;54.03;97431.81;6155688;28;96340;-68
2022/04/05 07:25:02;;;;;;;;;1.00;1.00;;;;;9.42;54.25;97425.47;6149872;28;98335;-71
2022/04/05 07:28:05;;;;;;;;;0.50;0.50;;;;;9.50;54.19;97433.91;6144534;28;97278;-68
2022/04/05 07:31:09;;;;;;;;;1.00;1.00;;;;;9.36;54.54;97416.53;6158020;28;96473;-68
2022/04/05 07:34:13;;;;;;;;;1.00;1.00;;;;;9.66;54.07;97434.09;6156856;28;97599;-69
2022/04/05 07:37:17;;;;;;;;;1.00;1.00;;;;;9.67;53.92;97438.41;6142780;28;97450;-69
2022/04/05 07:40:20;;;;;;;;;1.00;1.00;;;;;9.71;53.84;97440.38;6129287;28;98754;-68
2022/04/05 07:43:26;;;;;;;;;1.00;1.00;;;;;9.74;53.86;97436.34;6152016;28;97300;-69
2022/04/05 07:46:29;;;;;;;;;1.00;1.00;;;;;9.65;53.96;97443.22;6150019;28;96499;-70
2022/04/05 07:49:34;;;;;;;;;1.00;1.00;;;;;9.79;53.63;97439.91;6142668;28;96693;-71
2022/04/05 07:52:37;;;;;;;;;2.00;1.00;;;;;9.77;53.65;97435.84;6155909;28;96782;-69
2022/04/05 07:55:41;;;;;;;;;2.00;2.00;;;;;9.78;53.93;97437.47;6147963;28;96685;-69
2022/04/05 07:58:44;;;;;;;;;1.00;1.00;;;;;9.85;53.81;97446.16;6143045;28;96332;-67
2022/04/05 08:01:49;;;;;;;;;1.00;1.00;;;;;9.95;53.68;97446.28;6149542;28;96475;-71
2022/04/05 08:05:07;;;;;;;;;1.00;1.00;;;;;10.03;53.53;97440.44;6158041;28;96313;-67
2022/04/05 08:08:10;;;;;;;;;2.00;2.00;;;;;10.08;53.08;97462.03;6162299;28;98584;-71
2022/04/05 08:11:34;;;;;;;;;2.00;1.00;;;;;9.89;53.71;97455.34;6154468;28;96334;-69
2022/04/05 08:14:37;;;;;;;;;1.00;1.00;;;;;10.02;53.52;97463.84;6156575;28;97368;-70
2022/04/05 08:17:41;;;;;;;;;2.00;2.00;;;;;10.30;52.91;97460.16;6153200;28;97862;-66
2022/04/05 08:20:45;;;;;;;;;2.00;1.00;;;;;10.19;52.96;97455.72;6158506;27;96872;-70
2022/04/05 08:23:52;;;;;;;;;4.00;4.00;;;;;10.22;52.88;97467.84;6145071;27;96752;-68
2022/04/05 08:26:55;;;;;;;;;1.80;1.80;;;;;10.40;52.75;97462.94;6154315;27;97354;-69
2022/04/05 08:29:58;;;;;;;;;4.00;3.00;;;;;10.50;52.41;97470.31;6157232;28;97418;-69
2022/04/05 08:33:02;;;;;;;;;1.00;1.00;;;;;10.34;52.42;97468.53;6154691;27;96452;-68
2022/04/05 08:36:07;;;;;;;;;3.00;3.00;;;;;10.30;53.00;97484.41;6158763;28;97367;-67
2022/04/05 08:39:10;;;;;;;;;2.00;1.00;;;;;10.50;52.55;97477.56;6138885;28;96688;-67
2022/04/05 08:42:14;;;;;;;;;2.00;2.00;;;;;10.49;52.87;97475.94;6156586;28;96521;-69
2022/04/05 08:45:19;;;;;;;;;2.00;2.00;;;;;10.46;52.58;97469.16;6166760;27;96613;-69
2022/04/05 08:48:26;;;;;;;;;2.50;2.00;;;;;10.69;52.41;97476.13;6148630;28;96522;-68
2022/04/05 08:51:31;;;;;;;;;2.00;2.00;;;;;10.77;52.03;97478.34;6148983;28;97686;-69
2022/04/05 08:54:35;;;;;;;;;3.00;2.40;;;;;10.85;52.02;97484.06;6154709;28;96311;-68
2022/04/05 08:57:38;;;;;;;;;2.00;2.00;;;;;10.74;51.97;97486.97;6151692;28;96589;-68
2022/04/05 09:00:43;;;;;;;;;3.00;3.00;;;;;10.68;52.01;97488.78;6143910;28;97331;-68
2022/04/05 09:03:46;;;;;;;;;2.00;2.00;;;;;10.82;51.86;97473.81;6149146;28;96208;-67
2022/04/05 09:06:51;;;;;;;;;2.00;2.00;;;;;10.97;52.27;97489.28;6150557;27;96626;-65
2022/04/05 09:10:12;;;;;;;;;3.00;2.00;;;;;10.99;51.36;97489.88;6153639;27;96467;-68
2022/04/05 09:13:19;;;;;;;;;3.40;3.40;;;;;11.13;51.45;97503.72;6144326;27;98879;-67
2022/04/05 09:16:28;;;;;;;;;2.80;2.80;;;;;11.02;50.84;97491.22;6153491;28;96325;-67
2022/04/05 09:19:38;;;;;;;;;3.40;2.00;;;;;10.97;51.19;97505.47;6167264;28;96939;-67
2022/04/05 09:22:43;;;;;;;;;1.00;1.00;;;;;10.95;51.14;97494.13;6173676;27;96608;-68
2022/04/05 09:25:54;;;;;;;;;2.00;2.00;;;;;11.02;51.04;97499.31;6150528;27;97458;-67
2022/04/05 09:29:07;;;;;;;;;1.00;1.00;;;;;11.08;50.68;97498.28;6159431;27;97059;-68
2022/04/05 09:32:31;;;;;;;;;2.00;2.00;;;;;11.01;51.13;97505.75;6152681;28;97397;-68
2022/04/05 09:35:43;;;;;;;;;2.00;1.20;;;;;11.03;50.92;97499.06;6147122;28;96999;-70
2022/04/05 09:38:47;;;;;;;;;3.00;3.00;;;;;11.06;51.18;97505.81;6163226;28;96799;-71
2022/04/05 09:42:02;;;;;;;;;2.00;2.00;;;;;10.85;50.80;97486.75;6234165;27;98271;-69
2022/04/05 09:45:05;;;;;;;;;3.00;3.00;;;;;11.04;50.80;97492.59;6162284;27;97628;-70
2022/04/05 09:48:09;;;;;;;;;2.00;2.00;;;;;11.15;50.74;97505.06;6159291;28;96937;-66
2022/04/05 09:51:14;;;;;;;;;2.00;2.00;;;;;11.00;50.45;97499.56;6148682;27;97309;-67
2022/04/05 09:54:27;;;;;;;;;3.00;3.00;;;;;11.12;50.74;97505.59;6147637;28;97453;-69
2022/04/05 09:57:33;;;;;;;;;2.40;2.00;;;;;11.14;50.98;97511.53;6149811;28;97284;-67
2022/04/05 10:00:37;;;;;;;;;3.00;2.00;;;;;10.81;50.90;97509.91;6162292;27;97336;-68
2022/04/05 10:03:42;;;;;;;;;2.00;1.60;;;;;10.79;50.69;97501.31;6153492;27;96550;-69
2022/04/05 10:06:47;;;;;;;;;3.00;2.00;;;;;10.94;50.92;97506.00;6153196;28;96294;-67
2022/04/05 10:09:53;;;;;;;;;2.25;2.25;;;;;11.08;51.13;97514.47;6166404;28;96715;-67
2022/04/05 10:12:56;;;;;;;;;3.00;3.00;;;;;10.79;51.16;97495.91;6165529;27;96530;-69
2022/04/05 10:16:01;;;;;;;;;2.00;2.00;;;;;11.02;51.67;97524.41;6158329;28;98325;-69
2022/04/05 10:19:11;;;;;;;;;3.40;3.00;;;;;10.75;51.76;97515.53;6147500;28;96484;-70
2022/04/05 10:22:17;;;;;;;;;2.00;2.00;;;;;10.94;51.84;97524.88;6242951;27;98574;-70
2022/04/05 10:25:23;;;;;;;;;3.00;3.00;;;;;11.05;51.58;97536.53;6144810;28;96726;-68
2022/04/05 10:28:29;;;;;;;;;2.00;2.00;;;;;10.76;51.67;97517.97;6155683;28;96400;-66
2022/04/05 10:31:44;;;;;;;;;3.00;3.00;;;;;10.72;51.74;97516.84;6144044;28;96734;-65
2022/04/05 10:34:54;;;;;;;;;3.00;3.00;;;;;10.89;51.53;97529.41;6156921;27;97396;-65
2022/04/05 10:38:11;;;;;;;;;3.00;2.75;;;;;11.04;50.99;97524.16;6150154;28;96697;-65
2022/04/05 10:41:19;;;;;;;;;4.00;3.00;;;;;11.22;51.11;97521.03;6136736;28;96721;-69
2022/04/05 10:44:27;;;;;;;;;2.50;2.50;;;;;11.21;50.78;97522.09;6154570;28;97308;-69
2022/04/05 10:47:30;;;;;;;;;3.00;3.00;;;;;11.29;50.20;97533.22;6163495;28;97422;-70
2022/04/05 10:51:30;;;;;;;;;3.00;3.00;;;;;11.39;49.72;97542.44;6157926;27;97998;-71
2022/04/05 10:54:39;;;;;;;;;4.00;4.00;;;;;11.48;49.54;97530.94;6148848;28;96368;-68
2022/04/05 10:57:44;;;;;;;;;3.00;3.00;;;;;11.73;49.56;97530.28;6150040;28;97823;-69
2022/04/05 11:04:36;;;;;;;;;4.00;3.00;;;;;11.98;48.76;97533.13;5708322;22;97504;-67
2022/04/05 11:08:01;;;;;;;;;4.00;4.00;;;;;11.49;48.70;97546.03;6132997;28;97371;-67
2022/04/05 11:11:08;;;;;;;;;6.00;4.75;;;;;11.67;49.40;97544.81;6126492;28;97726;-66
2022/04/05 11:14:12;;;;;;;;;5.00;4.00;;;;;11.64;49.35;97540.75;6134830;28;97445;-69
2022/04/05 11:17:18;;;;;;;;;3.00;3.00;;;;;11.56;49.45;97543.13;6128469;28;96430;-68
2022/04/05 11:20:23;;;;;;;;;3.00;3.00;;;;;11.58;49.49;97546.38;6111820;28;99535;-68
2022/04/05 11:23:45;;;;;;;;;5.00;4.00;;;;;11.61;49.37;97552.06;6133171;28;97799;-70
2022/04/05 11:26:49;;;;;;;;;4.00;3.00;;;;;11.49;49.34;97551.44;6160155;22;99629;-62
2022/04/05 11:30:38;;;;;;;;;2.00;2.00;;;;;11.37;49.27;97550.00;6162006;22;98537;-68
2022/04/05 11:33:42;;;;;;;;;3.80;3.00;;;;;11.48;49.50;97559.81;6112974;28;97375;-69
2022/04/05 11:36:45;;;;;;;;;2.00;2.00;;;;;11.56;49.01;97557.44;6150614;28;96852;-70
2022/04/05 11:39:48;;;;;;;;;3.00;3.00;;;;;11.73;49.10;97554.56;6172212;28;97977;-70
2022/04/05 11:42:53;;;;;;;;;3.00;3.00;;;;;11.71;48.84;97533.25;6132387;28;99596;-70
2022/04/05 11:45:59;;;;;;;;;5.60;4.40;;;;;11.93;48.12;97557.41;6111990;28;97310;-69
2022/04/05 11:49:05;;;;;;;;;4.80;4.00;;;;;12.00;48.18;97565.28;6154727;27;96729;-71
2022/04/05 11:52:10;;;;;;;;;4.50;4.00;;;;;12.18;47.88;97558.59;6170917;28;97346;-67
2022/04/05 11:58:42;;;;;;;;;5.40;4.00;;;;;12.40;47.27;97554.63;6102014;28;96588;-68
2022/04/05 12:01:50;;;;;;;;;6.00;5.80;;;;;12.40;47.18;97546.53;6100602;28;96514;-69
2022/04/05 12:04:55;;;;;;;;;5.40;5.00;;;;;12.43;46.57;97543.28;6090894;28;97896;-67
2022/04/05 12:07:58;;;;;;;;;5.00;4.80;;;;;12.54;47.64;97550.34;6129797;28;97831;-68
2022/04/05 12:11:01;;;;;;;;;6.80;5.80;;;;;12.40;46.43;97559.22;6080530;28;97072;-67
2022/04/05 12:14:06;;;;;;;;;5.00;5.00;;;;;12.50;46.77;97553.84;6076015;28;97878;-70
2022/04/05 12:17:11;;;;;;;;;6.00;5.00;;;;;12.63;46.52;97553.34;6086724;28;96449;-68
2022/04/05 12:20:18;;;;;;;;;6.00;5.00;;;;;12.54;46.35;97552.25;6087959;28;99425;-70
2022/04/05 12:23:24;;;;;;;;;7.20;6.20;;;;;12.42;46.17;97557.06;6093517;28;99482;-70
2022/04/05 12:26:32;;;;;;;;;7.75;6.75;;;;;12.41;46.60;97566.25;6077301;28;96725;-70
2022/04/05 12:29:39;;;;;;;;;6.40;6.00;;;;;12.50;46.40;97573.59;6089490;28;97317;-72
2022/04/05 12:32:44;;;;;;;;;7.50;6.00;;;;;12.36;46.55;97567.06;6113264;28;97327;-72
2022/04/05 12:35:47;;;;;;;;;7.00;6.00;;;;;12.36;46.50;97567.06;6110394;28;96549;-71
2022/04/05 12:38:51;;;;;;;;;6.67;6.67;;;;;12.38;46.19;97555.97;6111852;28;97457;-72
2022/04/05 12:41:57;;;;;;;;;7.60;7.00;;;;;12.56;46.40;97564.41;6089391;28;96753;-66
2022/04/05 12:45:00;;;;;;;;;8.00;7.00;;;;;12.45;46.39;97568.16;6095793;28;96392;-69
2022/04/05 12:48:13;;;;;;;;;8.00;7.25;;;;;12.58;46.15;97570.34;6079714;28;97651;-69
2022/04/05 12:51:31;;;;;;;;;7.25;7.00;;;;;12.37;45.97;97547.03;6080816;28;96597;-67
2022/04/05 12:54:36;;;;;;;;;7.00;7.00;;;;;12.53;45.86;97569.53;6084910;28;99415;-72
2022/04/05 12:57:47;;;;;;;;;6.80;6.00;;;;;12.51;45.84;97556.28;6089767;28;96843;-73
2022/04/05 13:00:50;;;;;;;;;6.60;6.00;;;;;12.64;45.76;97562.25;6086863;28;96557;-73
2022/04/05 13:04:01;;;;;;;;;7.00;7.00;;;;;12.49;45.52;97563.03;6130106;28;97425;-71
2022/04/05 13:07:05;;;;;;;;;7.00;7.00;;;;;12.57;45.54;97559.81;6092357;28;97054;-70
2022/04/05 13:10:11;;;;;;;;;8.50;8.00;;;;;12.36;46.12;97556.25;6088640;28;96805;-72
2022/04/05 13:13:21;;;;;;;;;7.25;7.00;;;;;12.32;45.95;97557.84;6108586;28;97401;-73
2022/04/05 13:16:27;;;;;;;;;7.00;7.00;;;;;12.29;46.05;97557.56;6090630;28;97455;-67
2022/04/05 13:19:32;;;;;;;;;9.00;8.00;;;;;12.39;45.99;97552.19;6062117;28;97888;-65
2022/04/05 13:22:35;;;;;;;;;6.25;6.25;;;;;12.34;46.17;97561.09;6093001;28;97542;-70
2022/04/05 13:25:40;;;;;;;;;9.00;8.75;;;;;12.21;46.59;97563.47;6077049;28;99789;-69
2022/04/05 13:28:44;;;;;;;;;9.00;8.00;;;;;12.28;46.50;97555.94;6103442;28;96759;-67
2022/04/05 13:31:50;;;;;;;;;7.00;7.00;;;;;11.76;46.79;97504.66;6081277;28;100004;-68
2022/04/05 13:34:55;;;;;;;;;8.25;8.00;;;;;12.19;46.94;97552.13;6125497;28;96379;-70
2022/04/05 13:37:59;;;;;;;;;8.00;8.00;;;;;12.11;47.39;97554.25;6126384;28;98529;-67
2022/04/05 13:41:03;;;;;;;;;7.20;7.00;;;;;12.13;47.11;97544.00;6083710;28;98615;-70
2022/04/05 13:44:09;;;;;;;;;8.00;7.00;;;;;12.15;47.31;97555.34;6121927;28;96512;-70
2022/04/05 13:47:12;;;;;;;;;9.00;8.00;;;;;12.26;47.13;97558.91;6076915;28;96663;-70
2022/04/05 13:50:18;;;;;;;;;9.40;9.00;;;;;12.38;46.64;97537.84;6086989;28;96480;-71
2022/04/05 13:53:22;;;;;;;;;9.40;9.40;;;;;12.22;46.50;97557.00;6075379;28;97742;-71
2022/04/05 13:56:25;;;;;;;;;8.00;7.20;;;;;12.30;46.64;97541.09;6070107;28;97444;-71
2022/04/05 13:59:29;;;;;;;;;8.60;8.00;;;;;12.41;46.68;97550.84;6072604;28;97116;-71
2022/04/05 14:02:33;;;;;;;;;9.00;8.60;;;;;12.65;46.19;97545.78;6087076;28;97452;-70
2022/04/05 14:05:37;;;;;;;;;8.75;7.75;;;;;12.61;46.10;97549.28;6056807;28;97680;-70
2022/04/05 14:08:41;;;;;;;;;7.60;7.60;;;;;12.71;45.89;97558.22;6076732;28;97800;-70
2022/04/05 14:11:44;;;;;;;;;10.00;10.00;;;;;12.82;45.66;97556.34;6073406;28;96825;-70
2022/04/05 14:14:47;;;;;;;;;8.60;8.00;;;;;12.86;45.70;97557.41;6068030;28;96461;-70
2022/04/05 14:17:51;;;;;;;;;11.00;10.00;;;;;12.94;45.55;97548.78;6078228;28;98400;-70
2022/04/05 14:20:56;;;;;;;;;8.80;8.00;;;;;13.07;45.32;97532.03;6066966;28;97527;-70
2022/04/05 14:24:00;;;;;;;;;9.40;9.40;;;;;13.14;45.04;97559.66;6084366;28;99219;-70
2022/04/05 14:27:04;;;;;;;;;9.40;8.40;;;;;13.25;45.14;97552.34;6064846;28;97687;-71
2022/04/05 14:30:09;;;;;;;;;7.20;7.00;;;;;13.24;44.91;97551.53;6086104;28;97294;-70
2022/04/05 14:33:12;;;;;;;;;9.00;7.50;;;;;13.16;45.38;97543.13;6082135;28;96808;-70
2022/04/05 14:36:17;;;;;;;;;9.00;7.20;;;;;13.25;45.16;97539.63;6071524;28;96813;-70
2022/04/05 14:39:21;;;;;;;;;7.00;7.00;;;;;13.28;45.14;97541.81;6098381;28;96361;-70
2022/04/05 14:42:24;;;;;;;;;8.40;8.00;;;;;13.38;45.15;97541.78;6093548;28;98184;-70
2022/04/05 14:45:47;;;;;;;;;10.00;9.50;;;;;13.31;45.31;97549.38;6083497;28;96638;-69